sensor_id;sensor_type;location;lat;lon;timestamp;P1;durP1;ratioP1;P2;durP2;ratioP2
76098;SDS011;64828;49.956;8.636;2024-01-30T00:00:05;15.68;;;10.20;;
76098;SDS011;64828;49.956;8.636;2024-01-30T00:00:21;14.68;;;10.15;;
76098;SDS011;64828;49.956;8.636;2024-01-30T00:00:37;15.15;;;9.95;;
76098;SDS011;64828;49.956;8.636;2024-01-30T00:00:52;15.77;;;9.80;;
76098;SDS011;64828;49.956;8.636;2024-01-30T00:01:08;16.02;;;9.98;;
76098;SDS011;64828;49.956;8.636;2024-01-30T00:01:23;14.25;;;9.90;;
76098;SDS011;64828;49.956;8.636;2024-01-30T00:01:39;13.87;;;9.63;;
76098;SDS011;64828;49.956;8.636;2024-01-30T00:01:54;14.05;;;9.65;;
76098;SDS011;64828;49.956;8.636;2024-01-30T00:02:10;14.30;;;10.13;;
76098;SDS011;64828;49.956;8.636;2024-01-30T00:02:26;16.77;;;10.25;;
76098;SDS011;64828;49.956;8.636;2024-01-30T00:02:41;17.02;;;9.73;;
76098;SDS011;64828;49.956;8.636;2024-01-30T00:02:58;16.13;;;9.90;;
76098;SDS011;64828;49.956;8.636;2024-01-30T00:03:13;16.77;;;9.95;;
76098;SDS011;64828;49.956;8.636;2024-01-30T00:03:29;17.23;;;10.03;;
76098;SDS011;64828;49.956;8.636;2024-01-30T00:03:44;15.90;;;9.98;;
76098;SDS011;64828;49.956;8.636;2024-01-30T00:04:00;14.17;;;9.50;;
76098;SDS011;64828;49.956;8.636;2024-01-30T00:04:16;15.18;;;9.95;;
76098;SDS011;64828;49.956;8.636;2024-01-30T00:04:32;17.73;;;10.68;;
76098;SDS011;64828;49.956;8.636;2024-01-30T00:04:47;18.40;;;10.87;;
76098;SDS011;64828;49.956;8.636;2024-01-30T00:05:03;17.25;;;10.45;;
76098;SDS011;64828;49.956;8.636;2024-01-30T00:05:19;16.10;;;10.13;;
76098;SDS011;64828;49.956;8.636;2024-01-30T00:05:34;18.00;;;10.38;;
76098;SDS011;64828;49.956;8.636;2024-01-30T00:05:50;17.73;;;10.27;;
76098;SDS011;64828;49.956;8.636;2024-01-30T00:06:06;16.95;;;10.07;;
76098;SDS011;64828;49.956;8.636;2024-01-30T00:06:22;16.52;;;10.25;;
76098;SDS011;64828;49.956;8.636;2024-01-30T00:06:38;15.88;;;10.05;;
76098;SDS011;64828;49.956;8.636;2024-01-30T00:06:54;17.03;;;10.03;;
76098;SDS011;64828;49.956;8.636;2024-01-30T00:07:09;19.90;;;10.40;;
76098;SDS011;64828;49.956;8.636;2024-01-30T00:07:25;17.80;;;10.27;;
76098;SDS011;64828;49.956;8.636;2024-01-30T00:07:41;15.40;;;9.77;;
76098;SDS011;64828;49.956;8.636;2024-01-30T00:07:56;16.83;;;9.93;;
76098;SDS011;64828;49.956;8.636;2024-01-30T00:08:12;16.45;;;10.23;;
76098;SDS011;64828;49.956;8.636;2024-01-30T00:08:27;15.90;;;10.18;;
76098;SDS011;64828;49.956;8.636;2024-01-30T00:08:43;17.33;;;10.60;;
76098;SDS011;64828;49.956;8.636;2024-01-30T00:09:01;16.30;;;10.07;;
76098;SDS011;64828;49.956;8.636;2024-01-30T00:09:17;15.13;;;9.82;;
76098;SDS011;64828;49.956;8.636;2024-01-30T00:09:32;16.08;;;10.05;;
76098;SDS011;64828;49.956;8.636;2024-01-30T00:09:48;16.47;;;9.97;;
76098;SDS011;64828;49.956;8.636;2024-01-30T00:10:03;17.10;;;9.98;;
76098;SDS011;64828;49.956;8.636;2024-01-30T00:10:21;15.55;;;9.73;;
76098;SDS011;64828;49.956;8.636;2024-01-30T00:10:36;16.50;;;9.90;;
76098;SDS011;64828;49.956;8.636;2024-01-30T00:10:52;17.20;;;9.90;;
76098;SDS011;64828;49.956;8.636;2024-01-30T00:11:08;17.83;;;9.93;;
76098;SDS011;64828;49.956;8.636;2024-01-30T00:11:23;19.60;;;10.40;;
76098;SDS011;64828;49.956;8.636;2024-01-30T00:11:43;16.65;;;10.02;;
76098;SDS011;64828;49.956;8.636;2024-01-30T00:11:59;15.07;;;9.50;;
76098;SDS011;64828;49.956;8.636;2024-01-30T00:12:15;15.43;;;9.70;;
76098;SDS011;64828;49.956;8.636;2024-01-30T00:12:31;16.13;;;10.10;;
76098;SDS011;64828;49.956;8.636;2024-01-30T00:12:47;16.75;;;9.98;;
76098;SDS011;64828;49.956;8.636;2024-01-30T00:13:02;16.30;;;9.75;;
76098;SDS011;64828;49.956;8.636;2024-01-30T00:13:18;16.60;;;9.97;;
76098;SDS011;64828;49.956;8.636;2024-01-30T00:13:34;15.77;;;10.10;;
76098;SDS011;64828;49.956;8.636;2024-01-30T00:13:50;13.73;;;9.73;;
76098;SDS011;64828;49.956;8.636;2024-01-30T00:14:06;14.07;;;9.93;;
76098;SDS011;64828;49.956;8.636;2024-01-30T00:14:22;16.00;;;10.23;;
76098;SDS011;64828;49.956;8.636;2024-01-30T00:14:38;16.50;;;10.45;;
76098;SDS011;64828;49.956;8.636;2024-01-30T00:14:53;15.35;;;10.18;;
76098;SDS011;64828;49.956;8.636;2024-01-30T00:15:09;16.03;;;9.90;;
76098;SDS011;64828;49.956;8.636;2024-01-30T00:15:25;16.85;;;10.15;;
76098;SDS011;64828;49.956;8.636;2024-01-30T00:15:41;17.42;;;10.38;;
76098;SDS011;64828;49.956;8.636;2024-01-30T00:15:56;17.00;;;10.27;;
76098;SDS011;64828;49.956;8.636;2024-01-30T00:16:21;15.90;;;10.17;;
76098;SDS011;64828;49.956;8.636;2024-01-30T00:16:39;16.88;;;10.27;;
76098;SDS011;64828;49.956;8.636;2024-01-30T00:16:54;17.38;;;10.75;;
76098;SDS011;64828;49.956;8.636;2024-01-30T00:17:10;17.53;;;10.73;;
76098;SDS011;64828;49.956;8.636;2024-01-30T00:17:25;17.17;;;10.40;;
76098;SDS011;64828;49.956;8.636;2024-01-30T00:17:41;18.90;;;10.30;;
76098;SDS011;64828;49.956;8.636;2024-01-30T00:17:57;18.38;;;10.20;;
76098;SDS011;64828;49.956;8.636;2024-01-30T00:18:12;16.95;;;10.63;;
76098;SDS011;64828;49.956;8.636;2024-01-30T00:18:28;17.47;;;10.73;;
76098;SDS011;64828;49.956;8.636;2024-01-30T00:18:43;16.02;;;10.40;;
76098;SDS011;64828;49.956;8.636;2024-01-30T00:18:59;16.43;;;10.10;;
76098;SDS011;64828;49.956;8.636;2024-01-30T00:19:17;17.83;;;10.00;;
76098;SDS011;64828;49.956;8.636;2024-01-30T00:19:32;17.58;;;10.15;;
76098;SDS011;64828;49.956;8.636;2024-01-30T00:19:48;17.20;;;10.17;;
76098;SDS011;64828;49.956;8.636;2024-01-30T00:20:04;15.57;;;9.90;;
76098;SDS011;64828;49.956;8.636;2024-01-30T00:20:20;17.30;;;10.30;;
76098;SDS011;64828;49.956;8.636;2024-01-30T00:20:36;17.63;;;10.07;;
76098;SDS011;64828;49.956;8.636;2024-01-30T00:20:51;17.27;;;10.10;;
76098;SDS011;64828;49.956;8.636;2024-01-30T00:21:07;16.92;;;10.13;;
76098;SDS011;64828;49.956;8.636;2024-01-30T00:21:23;15.97;;;10.00;;
76098;SDS011;64828;49.956;8.636;2024-01-30T00:21:40;16.05;;;10.15;;
76098;SDS011;64828;49.956;8.636;2024-01-30T00:21:56;15.80;;;9.77;;
76098;SDS011;64828;49.956;8.636;2024-01-30T00:22:11;14.68;;;9.40;;
76098;SDS011;64828;49.956;8.636;2024-01-30T00:22:27;14.80;;;9.30;;
76098;SDS011;64828;49.956;8.636;2024-01-30T00:22:45;16.25;;;9.75;;
76098;SDS011;64828;49.956;8.636;2024-01-30T00:23:00;16.13;;;9.88;;
76098;SDS011;64828;49.956;8.636;2024-01-30T00:23:16;16.38;;;10.13;;
76098;SDS011;64828;49.956;8.636;2024-01-30T00:23:32;18.40;;;10.77;;
76098;SDS011;64828;49.956;8.636;2024-01-30T00:23:47;19.30;;;10.68;;
76098;SDS011;64828;49.956;8.636;2024-01-30T00:24:03;18.05;;;10.30;;
76098;SDS011;64828;49.956;8.636;2024-01-30T00:24:19;18.20;;;10.57;;
76098;SDS011;64828;49.956;8.636;2024-01-30T00:24:35;19.13;;;10.83;;
76098;SDS011;64828;49.956;8.636;2024-01-30T00:24:50;18.08;;;10.70;;
76098;SDS011;64828;49.956;8.636;2024-01-30T00:25:06;18.37;;;10.80;;
76098;SDS011;64828;49.956;8.636;2024-01-30T00:25:22;18.90;;;10.82;;
76098;SDS011;64828;49.956;8.636;2024-01-30T00:25:37;15.75;;;9.80;;
76098;SDS011;64828;49.956;8.636;2024-01-30T00:25:53;15.67;;;9.83;;
76098;SDS011;64828;49.956;8.636;2024-01-30T00:26:08;18.70;;;10.45;;
76098;SDS011;64828;49.956;8.636;2024-01-30T00:26:24;18.20;;;10.15;;
76098;SDS011;64828;49.956;8.636;2024-01-30T00:26:40;17.73;;;9.75;;
76098;SDS011;64828;49.956;8.636;2024-01-30T00:26:56;18.40;;;9.77;;
76098;SDS011;64828;49.956;8.636;2024-01-30T00:27:11;18.15;;;10.18;;
76098;SDS011;64828;49.956;8.636;2024-01-30T00:27:27;18.20;;;10.30;;
76098;SDS011;64828;49.956;8.636;2024-01-30T00:27:42;16.50;;;9.93;;
76098;SDS011;64828;49.956;8.636;2024-01-30T00:27:58;16.23;;;10.40;;
76098;SDS011;64828;49.956;8.636;2024-01-30T00:28:13;16.38;;;10.57;;
76098;SDS011;64828;49.956;8.636;2024-01-30T00:28:29;16.13;;;10.15;;
76098;SDS011;64828;49.956;8.636;2024-01-30T00:28:45;16.40;;;9.93;;
76098;SDS011;64828;49.956;8.636;2024-01-30T00:29:00;16.17;;;10.35;;
76098;SDS011;64828;49.956;8.636;2024-01-30T00:29:16;16.58;;;10.18;;
76098;SDS011;64828;49.956;8.636;2024-01-30T00:29:34;16.05;;;10.00;;
76098;SDS011;64828;49.956;8.636;2024-01-30T00:29:49;16.17;;;10.32;;
76098;SDS011;64828;49.956;8.636;2024-01-30T00:30:05;15.32;;;9.95;;
76098;SDS011;64828;49.956;8.636;2024-01-30T00:30:21;14.00;;;9.50;;
76098;SDS011;64828;49.956;8.636;2024-01-30T00:30:37;15.27;;;9.98;;
76098;SDS011;64828;49.956;8.636;2024-01-30T00:30:53;17.07;;;10.43;;
76098;SDS011;64828;49.956;8.636;2024-01-30T00:31:09;17.17;;;10.50;;
76098;SDS011;64828;49.956;8.636;2024-01-30T00:31:27;16.30;;;10.50;;
76098;SDS011;64828;49.956;8.636;2024-01-30T00:31:43;17.38;;;10.68;;
76098;SDS011;64828;49.956;8.636;2024-01-30T00:31:59;19.33;;;10.87;;
76098;SDS011;64828;49.956;8.636;2024-01-30T00:32:15;20.42;;;10.65;;
76098;SDS011;64828;49.956;8.636;2024-01-30T00:32:30;21.27;;;10.82;;
76098;SDS011;64828;49.956;8.636;2024-01-30T00:32:46;19.77;;;10.67;;
76098;SDS011;64828;49.956;8.636;2024-01-30T00:33:01;16.45;;;10.52;;
76098;SDS011;64828;49.956;8.636;2024-01-30T00:33:17;15.98;;;10.70;;
76098;SDS011;64828;49.956;8.636;2024-01-30T00:33:33;16.90;;;10.40;;
76098;SDS011;64828;49.956;8.636;2024-01-30T00:33:48;16.17;;;10.27;;
76098;SDS011;64828;49.956;8.636;2024-01-30T00:34:04;15.00;;;10.07;;
76098;SDS011;64828;49.956;8.636;2024-01-30T00:34:19;15.20;;;9.88;;
76098;SDS011;64828;49.956;8.636;2024-01-30T00:34:36;16.23;;;10.18;;
76098;SDS011;64828;49.956;8.636;2024-01-30T00:34:51;16.45;;;10.23;;
76098;SDS011;64828;49.956;8.636;2024-01-30T00:35:07;16.88;;;10.38;;
76098;SDS011;64828;49.956;8.636;2024-01-30T00:35:24;15.85;;;10.48;;
76098;SDS011;64828;49.956;8.636;2024-01-30T00:35:40;15.82;;;10.40;;
76098;SDS011;64828;49.956;8.636;2024-01-30T00:35:56;17.10;;;10.37;;
76098;SDS011;64828;49.956;8.636;2024-01-30T00:36:11;16.15;;;10.05;;
76098;SDS011;64828;49.956;8.636;2024-01-30T00:36:27;18.08;;;10.27;;
76098;SDS011;64828;49.956;8.636;2024-01-30T00:36:45;19.05;;;10.52;;
76098;SDS011;64828;49.956;8.636;2024-01-30T00:37:00;18.00;;;10.57;;
76098;SDS011;64828;49.956;8.636;2024-01-30T00:37:16;18.77;;;10.68;;
76098;SDS011;64828;49.956;8.636;2024-01-30T00:37:32;17.70;;;10.60;;
76098;SDS011;64828;49.956;8.636;2024-01-30T00:37:48;15.63;;;10.20;;
76098;SDS011;64828;49.956;8.636;2024-01-30T00:38:03;16.65;;;10.20;;
76098;SDS011;64828;49.956;8.636;2024-01-30T00:38:19;17.75;;;10.32;;
76098;SDS011;64828;49.956;8.636;2024-01-30T00:38:35;17.15;;;10.20;;
76098;SDS011;64828;49.956;8.636;2024-01-30T00:38:51;16.97;;;10.50;;
76098;SDS011;64828;49.956;8.636;2024-01-30T00:39:06;16.50;;;10.38;;
76098;SDS011;64828;49.956;8.636;2024-01-30T00:39:24;15.73;;;10.27;;
76098;SDS011;64828;49.956;8.636;2024-01-30T00:39:39;17.10;;;10.48;;
76098;SDS011;64828;49.956;8.636;2024-01-30T00:39:55;16.17;;;10.27;;
76098;SDS011;64828;49.956;8.636;2024-01-30T00:40:10;15.75;;;10.10;;
76098;SDS011;64828;49.956;8.636;2024-01-30T00:40:30;15.65;;;10.02;;
76098;SDS011;64828;49.956;8.636;2024-01-30T00:40:46;16.35;;;10.30;;
76098;SDS011;64828;49.956;8.636;2024-01-30T00:41:01;17.17;;;10.53;;
76098;SDS011;64828;49.956;8.636;2024-01-30T00:41:18;16.52;;;10.35;;
76098;SDS011;64828;49.956;8.636;2024-01-30T00:41:34;17.05;;;10.70;;
76098;SDS011;64828;49.956;8.636;2024-01-30T00:41:50;18.25;;;11.02;;
76098;SDS011;64828;49.956;8.636;2024-01-30T00:42:05;17.97;;;11.03;;
76098;SDS011;64828;49.956;8.636;2024-01-30T00:42:21;18.08;;;10.85;;
76098;SDS011;64828;49.956;8.636;2024-01-30T00:42:38;18.02;;;10.65;;
76098;SDS011;64828;49.956;8.636;2024-01-30T00:42:54;17.88;;;10.80;;
76098;SDS011;64828;49.956;8.636;2024-01-30T00:43:09;17.80;;;11.00;;
76098;SDS011;64828;49.956;8.636;2024-01-30T00:43:25;18.90;;;11.45;;
76098;SDS011;64828;49.956;8.636;2024-01-30T00:43:41;19.47;;;11.27;;
76098;SDS011;64828;49.956;8.636;2024-01-30T00:43:56;18.27;;;10.88;;
76098;SDS011;64828;49.956;8.636;2024-01-30T00:44:12;17.23;;;10.82;;
76098;SDS011;64828;49.956;8.636;2024-01-30T00:44:27;17.40;;;10.93;;
76098;SDS011;64828;49.956;8.636;2024-01-30T00:44:43;18.08;;;10.90;;
76098;SDS011;64828;49.956;8.636;2024-01-30T00:44:59;18.07;;;10.90;;
76098;SDS011;64828;49.956;8.636;2024-01-30T00:45:15;18.77;;;10.88;;
76098;SDS011;64828;49.956;8.636;2024-01-30T00:45:31;19.90;;;11.20;;
76098;SDS011;64828;49.956;8.636;2024-01-30T00:45:47;18.07;;;10.67;;
76098;SDS011;64828;49.956;8.636;2024-01-30T00:46:02;18.30;;;10.60;;
76098;SDS011;64828;49.956;8.636;2024-01-30T00:46:18;21.77;;;11.27;;
76098;SDS011;64828;49.956;8.636;2024-01-30T00:46:33;20.83;;;11.07;;
76098;SDS011;64828;49.956;8.636;2024-01-30T00:46:49;19.77;;;11.13;;
76098;SDS011;64828;49.956;8.636;2024-01-30T00:47:05;20.30;;;11.03;;
76098;SDS011;64828;49.956;8.636;2024-01-30T00:47:21;20.92;;;11.07;;
76098;SDS011;64828;49.956;8.636;2024-01-30T00:47:37;19.60;;;11.03;;
76098;SDS011;64828;49.956;8.636;2024-01-30T00:47:52;18.23;;;11.03;;
76098;SDS011;64828;49.956;8.636;2024-01-30T00:48:08;18.13;;;10.85;;
76098;SDS011;64828;49.956;8.636;2024-01-30T00:48:23;17.57;;;10.80;;
76098;SDS011;64828;49.956;8.636;2024-01-30T00:48:39;17.85;;;11.13;;
76098;SDS011;64828;49.956;8.636;2024-01-30T00:48:54;21.27;;;11.87;;
76098;SDS011;64828;49.956;8.636;2024-01-30T00:49:10;22.60;;;11.88;;
76098;SDS011;64828;49.956;8.636;2024-01-30T00:49:26;20.45;;;11.27;;
76098;SDS011;64828;49.956;8.636;2024-01-30T00:49:41;19.03;;;11.77;;
76098;SDS011;64828;49.956;8.636;2024-01-30T00:49:57;19.13;;;12.00;;
76098;SDS011;64828;49.956;8.636;2024-01-30T00:50:12;18.40;;;11.50;;
76098;SDS011;64828;49.956;8.636;2024-01-30T00:50:28;19.33;;;11.40;;
76098;SDS011;64828;49.956;8.636;2024-01-30T00:50:44;21.47;;;11.73;;
76098;SDS011;64828;49.956;8.636;2024-01-30T00:50:59;23.88;;;11.82;;
76098;SDS011;64828;49.956;8.636;2024-01-30T00:51:15;23.48;;;12.10;;
76098;SDS011;64828;49.956;8.636;2024-01-30T00:51:30;22.37;;;12.17;;
76098;SDS011;64828;49.956;8.636;2024-01-30T00:51:46;22.50;;;12.30;;
76098;SDS011;64828;49.956;8.636;2024-01-30T00:52:01;19.67;;;11.83;;
76098;SDS011;64828;49.956;8.636;2024-01-30T00:52:17;20.55;;;11.90;;
76098;SDS011;64828;49.956;8.636;2024-01-30T00:52:33;22.33;;;12.05;;
76098;SDS011;64828;49.956;8.636;2024-01-30T00:52:48;22.80;;;11.90;;
76098;SDS011;64828;49.956;8.636;2024-01-30T00:53:04;23.08;;;11.65;;
76098;SDS011;64828;49.956;8.636;2024-01-30T00:53:20;20.60;;;11.45;;
76098;SDS011;64828;49.956;8.636;2024-01-30T00:53:35;19.00;;;11.43;;
76098;SDS011;64828;49.956;8.636;2024-01-30T00:53:51;19.95;;;11.27;;
76098;SDS011;64828;49.956;8.636;2024-01-30T00:54:06;21.70;;;11.33;;
76098;SDS011;64828;49.956;8.636;2024-01-30T00:54:23;21.50;;;11.40;;
76098;SDS011;64828;49.956;8.636;2024-01-30T00:54:38;21.95;;;11.75;;
76098;SDS011;64828;49.956;8.636;2024-01-30T00:54:54;23.80;;;12.18;;
76098;SDS011;64828;49.956;8.636;2024-01-30T00:55:09;23.13;;;12.20;;
76098;SDS011;64828;49.956;8.636;2024-01-30T00:55:26;21.40;;;11.95;;
76098;SDS011;64828;49.956;8.636;2024-01-30T00:55:41;22.77;;;11.75;;
76098;SDS011;64828;49.956;8.636;2024-01-30T00:55:57;22.15;;;11.52;;
76098;SDS011;64828;49.956;8.636;2024-01-30T00:56:12;18.47;;;11.60;;
76098;SDS011;64828;49.956;8.636;2024-01-30T00:56:28;19.02;;;11.75;;
76098;SDS011;64828;49.956;8.636;2024-01-30T00:56:44;19.70;;;11.27;;
76098;SDS011;64828;49.956;8.636;2024-01-30T00:56:59;20.37;;;11.27;;
76098;SDS011;64828;49.956;8.636;2024-01-30T00:57:15;19.50;;;11.80;;
76098;SDS011;64828;49.956;8.636;2024-01-30T00:57:30;19.50;;;11.83;;
76098;SDS011;64828;49.956;8.636;2024-01-30T00:57:46;20.85;;;11.93;;
76098;SDS011;64828;49.956;8.636;2024-01-30T00:58:02;24.55;;;12.30;;
76098;SDS011;64828;49.956;8.636;2024-01-30T00:58:18;26.38;;;12.20;;
76098;SDS011;64828;49.956;8.636;2024-01-30T00:58:34;23.35;;;11.70;;
76098;SDS011;64828;49.956;8.636;2024-01-30T00:58:49;21.97;;;11.70;;
76098;SDS011;64828;49.956;8.636;2024-01-30T00:59:05;22.17;;;12.15;;
76098;SDS011;64828;49.956;8.636;2024-01-30T00:59:20;20.20;;;11.80;;
76098;SDS011;64828;49.956;8.636;2024-01-30T00:59:36;20.57;;;11.73;;
76098;SDS011;64828;49.956;8.636;2024-01-30T00:59:52;22.17;;;12.63;;
76098;SDS011;64828;49.956;8.636;2024-01-30T01:00:07;22.97;;;12.67;;
76098;SDS011;64828;49.956;8.636;2024-01-30T01:00:24;22.42;;;12.48;;
76098;SDS011;64828;49.956;8.636;2024-01-30T01:00:44;21.17;;;12.38;;
76098;SDS011;64828;49.956;8.636;2024-01-30T01:00:59;20.53;;;11.63;;
76098;SDS011;64828;49.956;8.636;2024-01-30T01:01:15;21.27;;;11.88;;
76098;SDS011;64828;49.956;8.636;2024-01-30T01:01:31;21.75;;;12.32;;
76098;SDS011;64828;49.956;8.636;2024-01-30T01:01:46;20.97;;;12.30;;
76098;SDS011;64828;49.956;8.636;2024-01-30T01:02:02;20.23;;;12.23;;
76098;SDS011;64828;49.956;8.636;2024-01-30T01:02:17;22.23;;;12.23;;
76098;SDS011;64828;49.956;8.636;2024-01-30T01:02:34;23.60;;;12.63;;
76098;SDS011;64828;49.956;8.636;2024-01-30T01:02:50;24.80;;;12.50;;
76098;SDS011;64828;49.956;8.636;2024-01-30T01:03:06;23.63;;;12.13;;
76098;SDS011;64828;49.956;8.636;2024-01-30T01:03:21;24.90;;;12.80;;
76098;SDS011;64828;49.956;8.636;2024-01-30T01:03:37;25.38;;;13.20;;
76098;SDS011;64828;49.956;8.636;2024-01-30T01:03:52;24.02;;;12.80;;
76098;SDS011;64828;49.956;8.636;2024-01-30T01:04:08;25.83;;;12.63;;
76098;SDS011;64828;49.956;8.636;2024-01-30T01:04:24;25.23;;;12.13;;
76098;SDS011;64828;49.956;8.636;2024-01-30T01:04:39;22.80;;;12.27;;
76098;SDS011;64828;49.956;8.636;2024-01-30T01:04:55;24.08;;;12.73;;
76098;SDS011;64828;49.956;8.636;2024-01-30T01:05:10;24.23;;;12.73;;
76098;SDS011;64828;49.956;8.636;2024-01-30T01:05:26;21.52;;;12.55;;
76098;SDS011;64828;49.956;8.636;2024-01-30T01:05:42;21.15;;;12.07;;
76098;SDS011;64828;49.956;8.636;2024-01-30T01:05:57;21.83;;;12.45;;
76098;SDS011;64828;49.956;8.636;2024-01-30T01:06:13;22.27;;;12.93;;
76098;SDS011;64828;49.956;8.636;2024-01-30T01:06:29;20.55;;;12.43;;
76098;SDS011;64828;49.956;8.636;2024-01-30T01:06:44;19.07;;;12.03;;
76098;SDS011;64828;49.956;8.636;2024-01-30T01:07:00;20.60;;;12.05;;
76098;SDS011;64828;49.956;8.636;2024-01-30T01:07:15;23.63;;;12.57;;
76098;SDS011;64828;49.956;8.636;2024-01-30T01:07:31;23.63;;;12.83;;
76098;SDS011;64828;49.956;8.636;2024-01-30T01:07:47;22.08;;;12.85;;
76098;SDS011;64828;49.956;8.636;2024-01-30T01:08:03;23.13;;;12.70;;
76098;SDS011;64828;49.956;8.636;2024-01-30T01:08:19;23.30;;;12.10;;
76098;SDS011;64828;49.956;8.636;2024-01-30T01:08:35;22.40;;;12.18;;
76098;SDS011;64828;49.956;8.636;2024-01-30T01:08:51;23.55;;;12.85;;
76098;SDS011;64828;49.956;8.636;2024-01-30T01:09:06;22.67;;;12.90;;
76098;SDS011;64828;49.956;8.636;2024-01-30T01:09:22;20.13;;;12.30;;
76098;SDS011;64828;49.956;8.636;2024-01-30T01:09:37;22.20;;;12.33;;
76098;SDS011;64828;49.956;8.636;2024-01-30T01:09:53;22.70;;;12.30;;
76098;SDS011;64828;49.956;8.636;2024-01-30T01:10:08;22.23;;;12.57;;
76098;SDS011;64828;49.956;8.636;2024-01-30T01:10:26;22.40;;;12.50;;
76098;SDS011;64828;49.956;8.636;2024-01-30T01:10:43;22.58;;;12.32;;
76098;SDS011;64828;49.956;8.636;2024-01-30T01:10:58;22.60;;;12.67;;
76098;SDS011;64828;49.956;8.636;2024-01-30T01:11:14;22.00;;;12.52;;
76098;SDS011;64828;49.956;8.636;2024-01-30T01:11:30;22.05;;;12.05;;
76098;SDS011;64828;49.956;8.636;2024-01-30T01:11:45;22.57;;;12.30;;
76098;SDS011;64828;49.956;8.636;2024-01-30T01:12:01;22.38;;;12.32;;
76098;SDS011;64828;49.956;8.636;2024-01-30T01:12:17;21.98;;;12.18;;
76098;SDS011;64828;49.956;8.636;2024-01-30T01:12:33;23.00;;;12.73;;
76098;SDS011;64828;49.956;8.636;2024-01-30T01:12:49;22.33;;;12.63;;
76098;SDS011;64828;49.956;8.636;2024-01-30T01:13:04;22.23;;;12.38;;
76098;SDS011;64828;49.956;8.636;2024-01-30T01:13:20;24.80;;;12.97;;
76098;SDS011;64828;49.956;8.636;2024-01-30T01:13:35;24.63;;;12.63;;
76098;SDS011;64828;49.956;8.636;2024-01-30T01:13:51;23.87;;;12.57;;
76098;SDS011;64828;49.956;8.636;2024-01-30T01:14:07;21.38;;;12.43;;
76098;SDS011;64828;49.956;8.636;2024-01-30T01:14:22;21.67;;;12.20;;
76098;SDS011;64828;49.956;8.636;2024-01-30T01:14:38;23.00;;;12.60;;
76098;SDS011;64828;49.956;8.636;2024-01-30T01:14:53;21.08;;;12.65;;
76098;SDS011;64828;49.956;8.636;2024-01-30T01:15:09;22.43;;;12.10;;
76098;SDS011;64828;49.956;8.636;2024-01-30T01:15:25;24.55;;;12.40;;
76098;SDS011;64828;49.956;8.636;2024-01-30T01:15:41;24.63;;;12.55;;
76098;SDS011;64828;49.956;8.636;2024-01-30T01:15:56;23.90;;;12.73;;
76098;SDS011;64828;49.956;8.636;2024-01-30T01:16:12;22.70;;;12.80;;
76098;SDS011;64828;49.956;8.636;2024-01-30T01:16:27;22.98;;;12.52;;
76098;SDS011;64828;49.956;8.636;2024-01-30T01:16:43;24.17;;;12.73;;
76098;SDS011;64828;49.956;8.636;2024-01-30T01:16:59;23.40;;;12.82;;
76098;SDS011;64828;49.956;8.636;2024-01-30T01:17:14;21.98;;;12.55;;
76098;SDS011;64828;49.956;8.636;2024-01-30T01:17:30;23.00;;;12.60;;
76098;SDS011;64828;49.956;8.636;2024-01-30T01:17:46;23.55;;;12.73;;
76098;SDS011;64828;49.956;8.636;2024-01-30T01:18:01;21.73;;;12.48;;
76098;SDS011;64828;49.956;8.636;2024-01-30T01:18:17;20.80;;;12.23;;
76098;SDS011;64828;49.956;8.636;2024-01-30T01:18:33;20.40;;;12.45;;
76098;SDS011;64828;49.956;8.636;2024-01-30T01:18:48;20.60;;;12.32;;
76098;SDS011;64828;49.956;8.636;2024-01-30T01:19:04;22.13;;;11.80;;
76098;SDS011;64828;49.956;8.636;2024-01-30T01:19:19;23.00;;;11.88;;
76098;SDS011;64828;49.956;8.636;2024-01-30T01:19:35;21.03;;;12.20;;
76098;SDS011;64828;49.956;8.636;2024-01-30T01:19:51;19.77;;;11.77;;
76098;SDS011;64828;49.956;8.636;2024-01-30T01:20:06;23.23;;;11.53;;
76098;SDS011;64828;49.956;8.636;2024-01-30T01:20:23;24.77;;;11.98;;
76098;SDS011;64828;49.956;8.636;2024-01-30T01:20:39;23.88;;;12.40;;
76098;SDS011;64828;49.956;8.636;2024-01-30T01:20:54;24.38;;;12.30;;
76098;SDS011;64828;49.956;8.636;2024-01-30T01:21:10;23.70;;;12.43;;
76098;SDS011;64828;49.956;8.636;2024-01-30T01:21:26;22.15;;;12.43;;
76098;SDS011;64828;49.956;8.636;2024-01-30T01:21:41;20.95;;;12.45;;
76098;SDS011;64828;49.956;8.636;2024-01-30T01:21:57;23.23;;;12.70;;
76098;SDS011;64828;49.956;8.636;2024-01-30T01:22:13;24.00;;;12.70;;
76098;SDS011;64828;49.956;8.636;2024-01-30T01:22:28;23.07;;;12.67;;
76098;SDS011;64828;49.956;8.636;2024-01-30T01:22:44;22.73;;;12.25;;
76098;SDS011;64828;49.956;8.636;2024-01-30T01:23:00;22.40;;;12.48;;
76098;SDS011;64828;49.956;8.636;2024-01-30T01:23:15;24.43;;;13.57;;
76098;SDS011;64828;49.956;8.636;2024-01-30T01:23:31;25.50;;;13.55;;
76098;SDS011;64828;49.956;8.636;2024-01-30T01:23:46;24.95;;;12.65;;
76098;SDS011;64828;49.956;8.636;2024-01-30T01:24:02;23.63;;;12.53;;
76098;SDS011;64828;49.956;8.636;2024-01-30T01:24:18;22.60;;;12.30;;
76098;SDS011;64828;49.956;8.636;2024-01-30T01:24:33;21.42;;;12.25;;
76098;SDS011;64828;49.956;8.636;2024-01-30T01:24:49;26.47;;;12.60;;
76098;SDS011;64828;49.956;8.636;2024-01-30T01:25:05;27.48;;;12.70;;
76098;SDS011;64828;49.956;8.636;2024-01-30T01:25:25;21.50;;;12.38;;
76098;SDS011;64828;49.956;8.636;2024-01-30T01:25:40;21.83;;;12.32;;
76098;SDS011;64828;49.956;8.636;2024-01-30T01:25:56;21.67;;;12.43;;
76098;SDS011;64828;49.956;8.636;2024-01-30T01:26:12;21.00;;;12.43;;
76098;SDS011;64828;49.956;8.636;2024-01-30T01:26:28;20.27;;;12.23;;
76098;SDS011;64828;49.956;8.636;2024-01-30T01:26:43;20.40;;;12.20;;
76098;SDS011;64828;49.956;8.636;2024-01-30T01:26:59;21.35;;;12.02;;
76098;SDS011;64828;49.956;8.636;2024-01-30T01:27:14;22.48;;;12.07;;
76098;SDS011;64828;49.956;8.636;2024-01-30T01:27:31;21.35;;;12.05;;
76098;SDS011;64828;49.956;8.636;2024-01-30T01:27:47;21.67;;;12.50;;
76098;SDS011;64828;49.956;8.636;2024-01-30T01:28:06;20.42;;;12.40;;
76098;SDS011;64828;49.956;8.636;2024-01-30T01:28:22;19.17;;;11.90;;
76098;SDS011;64828;49.956;8.636;2024-01-30T01:28:39;20.45;;;11.82;;
76098;SDS011;64828;49.956;8.636;2024-01-30T01:28:55;20.05;;;12.00;;
76098;SDS011;64828;49.956;8.636;2024-01-30T01:29:11;19.63;;;11.80;;
76098;SDS011;64828;49.956;8.636;2024-01-30T01:29:27;18.73;;;12.05;;
76098;SDS011;64828;49.956;8.636;2024-01-30T01:29:45;21.38;;;12.52;;
76098;SDS011;64828;49.956;8.636;2024-01-30T01:30:01;22.17;;;12.80;;
76098;SDS011;64828;49.956;8.636;2024-01-30T01:30:19;23.98;;;12.73;;
76098;SDS011;64828;49.956;8.636;2024-01-30T01:30:36;24.85;;;12.63;;
76098;SDS011;64828;49.956;8.636;2024-01-30T01:30:52;22.83;;;12.57;;
76098;SDS011;64828;49.956;8.636;2024-01-30T01:31:08;20.80;;;12.88;;
76098;SDS011;64828;49.956;8.636;2024-01-30T01:31:24;20.83;;;12.90;;
76098;SDS011;64828;49.956;8.636;2024-01-30T01:31:39;24.70;;;13.02;;
76098;SDS011;64828;49.956;8.636;2024-01-30T01:31:58;25.70;;;12.88;;
76098;SDS011;64828;49.956;8.636;2024-01-30T01:32:14;23.98;;;12.63;;
76098;SDS011;64828;49.956;8.636;2024-01-30T01:32:29;21.98;;;13.13;;
76098;SDS011;64828;49.956;8.636;2024-01-30T01:32:45;22.95;;;13.35;;
76098;SDS011;64828;49.956;8.636;2024-01-30T01:33:05;23.65;;;13.10;;